ZS1OSS Weather Reports


Display with metric or nautical units.
time (UTC)temp
F
wind
direction
speed
MPH
gust
MPH
rain 1hr
in
rain 24hr
in
rain mn
in
humidity
%
barometer
mb
20210923204041 60 48 2.0 2.0 0.00 0.00 0.00 83 1018.7
20210923203541 60 34 2.0 2.0 0.00 0.00 0.00 83 1018.7
20210923203039 60 51 1.0 2.0 0.00 0.00 0.00 83 1018.7
20210923202537 60 90 3.0 5.0 0.00 0.00 0.00 82 1018.8
20210923202035 60 15 3.0 5.0 0.00 0.00 0.00 82 1018.7
20210923201534 60 81 2.0 2.0 0.00 0.00 0.00 82 1018.5
20210923201032 60 36 3.0 3.0 0.00 0.00 0.00 82 1018.6
20210923200531 60 58 2.0 2.0 0.00 0.00 0.00 81 1018.7
20210923200028 60 63 3.0 3.0 0.00 0.00 0.00 81 1018.4
20210923195527 60 80 2.0 3.0 0.00 0.00 0.00 81 1018.5
20210923195026 60 96 1.0 1.0 0.00 0.00 0.00 81 1018.6
20210923194524 60 66 2.0 2.0 0.00 0.00 0.00 82 1018.4
20210923194022 60 32 3.0 3.0 0.00 0.00 0.00 82 1018.4
20210923193521 60 45 3.0 5.0 0.00 0.00 0.00 82 1018.3
20210923193020 60 100 2.0 3.0 0.00 0.00 0.00 82 1018.2
20210923192519 60 69 2.0 3.0 0.00 0.00 0.00 82 1018.3
20210923192017 60 68 5.0 6.0 0.00 0.00 0.00 82 1018.3
20210923191515 60 53 3.0 5.0 0.00 0.00 0.00 82 1018.2
20210923191013 60 37 2.0 2.0 0.00 0.00 0.00 82 1018.2
20210923190511 60 49 3.0 5.0 0.00 0.00 0.00 82 1018.1
20210923190011 60 27 5.0 6.0 0.00 0.00 0.00 82 1017.9
20210923185502 60 56 3.0 3.0 0.00 0.00 0.00 82 1018.0
20210923185002 60 29 1.0 2.0 0.00 0.00 0.00 82 1017.8
20210923184500 60 24 4.0 6.0 0.00 0.00 0.00 82 1018.1
20210923183958 60 67 4.0 5.0 0.00 0.00 0.00 82 1017.7
20210923183458 60 38 5.0 7.0 0.00 0.00 0.00 82 1017.6
20210923182957 60 32 3.0 3.0 0.00 0.00 0.00 82 1017.8
20210923182456 60 31 3.0 5.0 0.00 0.00 0.00 82 1017.6
20210923181956 60 21 3.0 5.0 0.00 0.00 0.00 82 1017.6
20210923181454 60 25 4.0 6.0 0.00 0.00 0.00 82 1017.3
20210923180953 60 60 3.0 3.0 0.00 0.00 0.00 82 1017.4
20210923180452 60 15 3.0 3.0 0.00 0.00 0.00 82 1017.4
20210923175949 60 70 4.0 5.0 0.00 0.00 0.00 82 1017.1
20210923175447 60 23 2.0 6.0 0.00 0.00 0.00 82 1017.3
20210923174946 60 25 2.0 3.0 0.00 0.00 0.00 82 1017.4
20210923174443 60 36 3.0 3.0 0.00 0.00 0.00 82 1017.4
20210923173942 60 40 5.0 7.0 0.00 0.00 0.00 82 1017.4
20210923173441 60 14 5.0 6.0 0.00 0.00 0.00 82 1017.4
20210923172941 60 33 3.0 3.0 0.00 0.00 0.00 82 1017.3
20210923172440 60 25 3.0 3.0 0.00 0.00 0.00 82 1017.1
20210923171938 60 49 3.0 5.0 0.00 0.00 0.00 82 1017.2
20210923171438 60 24 3.0 3.0 0.00 0.00 0.00 82 1017.0
20210923170936 60 57 5.0 6.0 0.00 0.00 0.00 82 1016.7
20210923170434 60 44 3.0 3.0 0.00 0.00 0.00 82 1017.0
20210923165933 60 11 4.0 6.0 0.00 0.00 0.00 82 1017.1
20210923165431 60 37 3.0 5.0 0.00 0.00 0.00 82 1017.0
20210923164928 60 117 5.0 7.0 0.00 0.00 0.00 82 1016.8
20210923164427 60 24 3.0 5.0 0.00 0.00 0.00 82 1016.6
20210923163925 60 13 5.0 6.0 0.00 0.00 0.00 81 1016.8
20210923163423 60 19 3.0 6.0 0.00 0.00 0.00 81 1016.6
20210923162923 61 101 4.0 5.0 0.00 0.00 0.00 81 1016.6
20210923162422 61 58 5.0 6.0 0.00 0.00 0.00 81 1016.3
20210923161920 61 13 5.0 6.0 0.00 0.00 0.00 81 1016.5
20210923161420 61 17 4.0 5.0 0.00 0.00 0.00 81 1016.6
20210923160919 61 11 5.0 7.0 0.00 0.00 0.00 80 1016.6
20210923160417 61 9 6.0 8.0 0.00 0.00 0.00 80 1016.6
20210923155917 61 19 6.0 8.0 0.00 0.00 0.00 80 1016.3
20210923155414 61 66 1.0 1.0 0.00 0.00 0.00 80 1016.5
20210923154914 61 20 3.0 7.0 0.00 0.00 0.00 79 1016.5
20210923154413 62 1 4.0 6.0 0.00 0.00 0.00 79 1016.2
20210923153912 62 11 9.0 11.0 0.00 0.00 0.00 78 1016.1
20210923153408 62 11 3.0 3.0 0.00 0.00 0.00 78 1016.1
20210923152908 62 81 4.0 6.0 0.00 0.00 0.00 78 1015.9
20210923152407 62 354 3.0 6.0 0.00 0.00 0.00 78 1016.1
20210923151902 62 72 3.0 5.0 0.00 0.00 0.00 77 1015.8
20210923151357 62 73 6.0 8.0 0.00 0.00 0.00 77 1015.7
20210923150857 63 36 3.0 3.0 0.00 0.00 0.00 76 1015.8
20210923150353 63 359 9.0 10.0 0.00 0.00 0.00 75 1015.6
20210923145850 63 21 7.0 13.0 0.00 0.00 0.00 76 1015.6
20210923145348 63 230 4.0 5.0 0.00 0.00 0.00 76 1015.6
20210923144848 63 21 3.0 3.0 0.00 0.00 0.00 76 1015.8
20210923144347 64 34 6.0 10.0 0.00 0.00 0.00 73 1015.7
20210923143844 64 358 2.0 5.0 0.00 0.00 0.00 73 1015.4
20210923143342 64 17 3.0 6.0 0.00 0.00 0.00 73 1015.4
20210923142841 65 43 2.0 3.0 0.00 0.00 0.00 72 1015.4
20210923142340 64 86 3.0 5.0 0.00 0.00 0.00 74 1015.4
20210923141839 66 6 9.0 13.0 0.00 0.00 0.00 72 1015.4
20210923141315 67 15 6.0 9.0 0.00 0.00 0.00 69 1015.5
20210923140810 67 27 5.0 6.0 0.00 0.00 0.00 69 1015.5
20210923140310 65 238 4.0 7.0 0.00 0.00 0.00 71 1015.5
20210923135809 65 19 8.0 10.0 0.00 0.00 0.00 72 1015.4
20210923135309 66 355 6.0 8.0 0.00 0.00 0.00 69 1015.2
20210923134807 65 357 4.0 6.0 0.00 0.00 0.00 71 1015.4
20210923134305 64 56 9.0 11.0 0.00 0.00 0.00 72 1015.4
20210923133805 65 35 7.0 9.0 0.00 0.00 0.00 71 1015.2
20210923133301 66 25 9.0 14.0 0.00 0.00 0.00 70 1015.4
20210923132801 65 16 5.0 7.0 0.00 0.00 0.00 72 1015.0
20210923132301 66 135 9.0 13.0 0.00 0.00 0.00 71 1015.2
20210923131800 65 78 6.0 8.0 0.00 0.00 0.00 70 1015.3
20210923131258 66 43 7.0 9.0 0.00 0.00 0.00 70 1015.3
20210923130756 66 29 6.0 7.0 0.00 0.00 0.00 69 1015.5
20210923130256 65 32 5.0 7.0 0.00 0.00 0.00 70 1015.3
20210923125755 66 48 14.0 17.0 0.00 0.00 0.00 68 1015.2
20210923125252 67 21 8.0 13.0 0.00 0.00 0.00 67 1015.4
20210923124750 66 29 5.0 7.0 0.00 0.00 0.00 69 1015.5
20210923124249 66 172 5.0 7.0 0.00 0.00 0.00 68 1015.3
20210923123746 67 296 1.0 2.0 0.00 0.00 0.00 68 1015.3
20210923123246 66 359 6.0 7.0 0.00 0.00 0.00 68 1015.3
20210923122745 67 323 3.0 5.0 0.00 0.00 0.00 67 1015.2
20210923122244 67 296 3.0 3.0 0.00 0.00 0.00 68 1015.0
20210923121743 67 24 9.0 10.0 0.00 0.00 0.00 67 1015.3
20210923121241 68 63 6.0 8.0 0.00 0.00 0.00 67 1015.1
20210923120740 68 23 3.0 3.0 0.00 0.00 0.00 65 1015.0
20210923120237 66 42 8.0 11.0 0.00 0.00 0.00 68 1015.0
20210923115736 67 11 11.0 14.0 0.00 0.00 0.00 67 1015.1
20210923115235 68 359 4.0 6.0 0.00 0.00 0.00 65 1015.1
20210923114735 67 234 7.0 9.0 0.00 0.00 0.00 66 1015.2
20210923114234 66 49 8.0 9.0 0.00 0.00 0.00 67 1015.1
20210923113731 66 32 8.0 9.0 0.00 0.00 0.00 67 1015.3
20210923113230 66 26 5.0 6.0 0.00 0.00 0.00 67 1015.1
20210923112726 66 48 9.0 11.0 0.00 0.00 0.00 66 1015.2
20210923112225 66 322 10.0 14.0 0.00 0.00 0.00 67 1015.4
20210923111725 68 348 6.0 8.0 0.00 0.00 0.00 65 1015.2
20210923111222 67 13 4.0 7.0 0.00 0.00 0.00 67 1015.3
20210923110721 66 34 2.0 2.0 0.00 0.00 0.00 71 1015.5
20210923110216 67 43 8.0 13.0 0.00 0.00 0.00 68 1015.3
20210923105715 67 289 4.0 9.0 0.00 0.00 0.00 69 1015.3
20210923105213 66 62 4.0 8.0 0.00 0.00 0.00 68 1015.4
20210923104706 66 231 3.0 6.0 0.00 0.00 0.00 70 1015.1
20210923104205 66 274 6.0 9.0 0.00 0.00 0.00 70 1015.1
20210923103703 66 107 4.0 5.0 0.00 0.00 0.00 70 1014.9
20210923103202 66 20 2.0 2.0 0.00 0.00 0.00 71 1015.0
20210923102701 66 62 2.0 2.0 0.00 0.00 0.00 73 1015.1
20210923102159 65 21 2.0 3.0 0.00 0.00 0.00 74 1015.0
20210923101658 66 272 4.0 6.0 0.00 0.00 0.00 73 1014.9
20210923101157 66 137 6.0 8.0 0.00 0.00 0.00 73 1014.8
20210923100656 65 354 5.0 7.0 0.00 0.00 0.00 73 1014.8
20210923100154 65 297 5.0 7.0 0.00 0.00 0.00 73 1014.9
20210923095653 66 251 7.0 10.0 0.00 0.00 0.00 73 1014.9
20210923095151 66 46 3.0 3.0 0.00 0.00 0.00 72 1014.6
20210923094651 65 357 5.0 7.0 0.00 0.00 0.00 72 1014.7
20210923094149 65 305 6.0 10.0 0.00 0.00 0.00 71 1015.0
20210923093644 66 359 3.0 5.0 0.00 0.00 0.00 69 1014.8
20210923093144 66 49 5.0 8.0 0.00 0.00 0.00 69 1014.5
20210923092643 66 353 5.0 8.0 0.00 0.00 0.00 69 1014.4
20210923092141 66 267 9.0 16.0 0.00 0.00 0.00 69 1014.4
20210923091640 66 346 5.0 7.0 0.00 0.00 0.00 68 1014.1
20210923091139 66 23 4.0 9.0 0.00 0.00 0.00 68 1014.1
20210923090639 67 205 7.0 14.0 0.00 0.00 0.00 65 1013.9
20210923090138 67 299 4.0 7.0 0.00 0.00 0.00 64 1013.8
20210923085635 66 83 3.0 5.0 0.00 0.00 0.00 64 1013.9
20210923085132 67 25 7.0 14.0 0.00 0.00 0.00 61 1013.7
20210923084633 67 44 3.0 5.0 0.00 0.00 0.00 60 1013.4
20210923084131 67 354 7.0 11.0 0.00 0.00 0.00 60 1013.6
20210923083628 67 34 7.0 9.0 0.00 0.00 0.00 59 1013.8
20210923083127 67 149 5.0 8.0 0.00 0.00 0.00 60 1013.5
20210923082626 67 33 5.0 7.0 0.00 0.00 0.00 59 1013.5
20210923082125 68 42 6.0 8.0 0.00 0.00 0.00 56 1013.4
20210923081623 68 33 7.0 13.0 0.00 0.00 0.00 54 1013.4
20210923081123 69 28 7.0 8.0 0.00 0.00 0.00 54 1013.4
20210923080621 68 95 2.0 3.0 0.00 0.00 0.00 53 1013.3
20210923080120 68 0 4.0 5.0 0.00 0.00 0.00 54 1013.4
20210923075620 68 66 6.0 7.0 0.00 0.00 0.00 52 1013.2
20210923075117 68 86 5.0 7.0 0.00 0.00 0.00 51 1013.2
20210923074616 67 4 5.0 7.0 0.00 0.00 0.00 52 1013.1
20210923074114 67 48 4.0 5.0 0.00 0.00 0.00 53 1013.0
20210923073611 67 39 1.0 2.0 0.00 0.00 0.00 54 1013.0
20210923073111 67 57 6.0 8.0 0.00 0.00 0.00 55 1013.0
20210923072609 66 36 4.0 5.0 0.00 0.00 0.00 57 1013.1
20210923072108 65 37 6.0 8.0 0.00 0.00 0.00 58 1013.0
20210923071605 65 51 6.0 7.0 0.00 0.00 0.00 59 1012.9
20210923071105 65 41 4.0 6.0 0.00 0.00 0.00 60 1013.1
20210923070604 64 23 4.0 7.0 0.00 0.00 0.00 60 1013.2
20210923070103 64 22 6.0 7.0 0.00 0.00 0.00 61 1013.3
20210923065601 63 74 5.0 7.0 0.00 0.00 0.00 62 1013.2
20210923065100 63 51 5.0 6.0 0.00 0.00 0.00 62 1013.4
20210923064559 63 72 2.0 2.0 0.00 0.00 0.00 62 1013.4
20210923064058 62 47 3.0 3.0 0.00 0.00 0.00 62 1013.3
20210923063556 62 76 3.0 5.0 0.00 0.00 0.00 62 1013.3
20210923063055 62 40 5.0 9.0 0.00 0.00 0.00 62 1013.2
20210923062554 62 85 3.0 5.0 0.00 0.00 0.00 62 1013.3
20210923062052 62 46 5.0 6.0 0.00 0.00 0.00 61 1013.2
20210923061551 62 55 6.0 7.0 0.00 0.00 0.00 61 1012.9
20210923061049 62 70 4.0 6.0 0.00 0.00 0.00 60 1013.0
20210923060546 62 46 3.0 3.0 0.00 0.00 0.00 61 1012.5
20210923060044 61 82 5.0 11.0 0.00 0.00 0.00 60 1012.4
20210923055544 61 44 5.0 7.0 0.00 0.00 0.00 62 1012.5
20210923055044 60 41 4.0 5.0 0.00 0.00 0.00 63 1012.6
20210923054541 60 64 6.0 7.0 0.00 0.00 0.00 63 1012.3
20210923054039 60 62 5.0 7.0 0.00 0.00 0.00 63 1012.3
20210923053539 60 74 4.0 6.0 0.00 0.00 0.00 62 1012.2
20210923053038 59 56 7.0 8.0 0.00 0.00 0.00 62 1012.1
20210923052532 59 41 5.0 7.0 0.00 0.00 0.00 62 1012.2
20210923052029 59 38 5.0 9.0 0.00 0.00 0.00 61 1012.1
20210923051525 59 72 5.0 8.0 0.00 0.00 0.00 61 1012.1
20210923051023 58 55 7.0 9.0 0.00 0.00 0.00 62 1012.3
20210923050522 58 56 5.0 6.0 0.00 0.00 0.00 64 1012.3
20210923050022 58 65 5.0 7.0 0.00 0.00 0.00 65 1012.2
20210923045521 58 72 6.0 8.0 0.00 0.00 0.00 66 1012.4
20210923045021 57 61 5.0 8.0 0.00 0.00 0.00 69 1012.4
20210923044516 57 44 2.0 2.0 0.00 0.00 0.00 71 1012.4
20210923044015 57 43 4.0 5.0 0.00 0.00 0.00 72 1012.4
20210923043512 56 66 3.0 3.0 0.00 0.00 0.00 73 1012.0
20210923043012 56 39 4.0 6.0 0.00 0.00 0.00 75 1012.1
20210923042509 57 86 3.0 5.0 0.00 0.00 0.00 75 1012.0
20210923042007 57 48 5.0 7.0 0.00 0.00 0.00 75 1012.2
20210923041503 57 46 4.0 6.0 0.00 0.00 0.00 75 1012.2
20210923040957 57 61 5.0 7.0 0.00 0.00 0.00 75 1011.8
20210923040454 57 65 4.0 5.0 0.00 0.00 0.00 74 1012.0
20210923035953 57 66 3.0 5.0 0.00 0.00 0.00 74 1012.1
20210923035452 57 90 2.0 2.0 0.00 0.00 0.00 72 1012.1
20210923034945 57 52 3.0 3.0 0.00 0.00 0.00 71 1012.1
20210923034443 57 43 3.0 5.0 0.00 0.00 0.00 69 1012.1
20210923033944 57 60 1.0 2.0 0.00 0.00 0.00 68 1011.7
20210923033441 58 71 2.0 2.0 0.00 0.00 0.00 66 1011.9
20210923032940 58 41 2.0 2.0 0.00 0.00 0.00 65 1011.9
20210923032438 58 54 2.0 2.0 0.00 0.00 0.00 65 1011.7
20210923031936 56 28 0.0 1.0 0.00 0.00 0.00 69 1011.7
20210923031435 56 305 0.0 0.0 0.00 0.00 0.00 70 1011.8
20210923030933 56 294 0.0 0.0 0.00 0.00 0.00 71 1011.7
20210923030432 56 294 0.0 0.0 0.00 0.00 0.00 71 1011.5
20210923025931 56 293 0.0 0.0 0.00 0.00 0.00 70 1011.3
20210923025428 56 287 1.0 1.0 0.00 0.00 0.00 71 1011.0
20210923024927 56 310 1.0 1.0 0.00 0.00 0.00 70 1010.8
20210923024421 55 328 0.0 0.0 0.00 0.00 0.00 71 1010.8
20210923023921 55 357 0.0 0.0 0.00 0.00 0.00 72 1011.0
20210923023419 55 1 0.0 0.0 0.00 0.00 0.00 72 1010.8
20210923022916 55 2 0.0 0.0 0.00 0.00 0.00 73 1010.6
20210923022415 55 3 0.0 0.0 0.00 0.00 0.00 73 1010.6
20210923021913 55 13 0.0 0.0 0.00 0.00 0.00 73 1010.4
20210923021411 55 8 0.0 0.0 0.00 0.00 0.00 72 1010.3
20210923020909 56 15 0.0 0.0 0.00 0.00 0.00 71 1010.3
20210923020407 56 13 1.0 1.0 0.00 0.00 0.00 72 1010.3
20210923015905 56 39 1.0 1.0 0.00 0.00 0.00 71 1010.1
20210923015404 57 57 1.0 2.0 0.00 0.00 0.00 72 1010.0
20210923014903 57 68 0.0 0.0 0.00 0.00 0.00 72 1010.0
20210923014339 57 18 1.0 1.0 0.00 0.00 0.00 72 1010.1
20210923013837 56 50 1.0 2.0 0.00 0.00 0.00 73 1010.2
20210923013337 56 64 1.0 1.0 0.00 0.00 0.00 74 1010.2
20210923012836 56 38 1.0 1.0 0.00 0.00 0.00 74 1009.9
20210923012334 57 54 2.0 2.0 0.00 0.00 0.00 74 1009.9
20210923011832 57 37 1.0 2.0 0.00 0.00 0.00 74 1009.9
20210923011330 56 54 1.0 1.0 0.00 0.00 0.00 75 1010.0
20210923010830 55 47 1.0 1.0 0.00 0.00 0.00 78 1010.2
20210923010328 55 5 0.0 0.0 0.00 0.00 0.00 79 1010.1
20210923005827 54 318 0.0 0.0 0.00 0.00 0.00 81 1010.2
20210923005324 54 318 0.0 0.0 0.00 0.00 0.00 83 1010.2
20210923004824 53 316 0.0 0.0 0.00 0.00 0.00 84 1010.2
20210923004323 54 313 0.0 0.0 0.00 0.00 0.00 84 1010.2
20210923003821 53 313 0.0 0.0 0.00 0.00 0.00 84 1010.3
20210923003320 53 313 0.0 0.0 0.00 0.00 0.00 84 1010.2
20210923002819 53 311 0.0 0.0 0.00 0.00 0.00 84 1010.5
20210923002316 53 311 0.0 0.0 0.00 0.00 0.00 84 1010.2
20210923001816 53 311 0.0 0.0 0.00 0.00 0.00 84 1009.8
20210923001314 54 312 1.0 2.0 0.00 0.00 0.00 84 1010.0
20210923000813 54 264 0.0 0.0 0.00 0.00 0.00 85 1010.1
20210923000311 54 264 0.0 0.0 0.00 0.00 0.00 85 1010.1
20210922235810 55 180 0.0 0.0 0.00 0.00 0.00 85 1010.1
20210922235309 55 180 0.0 0.0 0.00 0.00 0.00 85 1010.2
20210922234807 55 180 0.0 0.0 0.00 0.00 0.00 85 1010.0
20210922234306 55 180 0.0 0.0 0.00 0.00 0.00 84 1010.4
20210922233803 55 180 0.0 0.0 0.00 0.00 0.00 84 1010.2
20210922233303 55 180 0.0 0.0 0.00 0.00 0.00 84 1010.5
20210922232801 55 180 0.0 0.0 0.00 0.00 0.00 83 1010.4
20210922232301 55 180 0.0 0.0 0.00 0.00 0.00 83 1010.3
20210922231800 56 180 0.0 0.0 0.00 0.00 0.00 83 1010.2
20210922231259 56 180 0.0 0.0 0.00 0.00 0.00 82 1010.2
20210922230758 56 180 0.0 0.0 0.00 0.00 0.00 82 1010.4
20210922230255 56 180 0.0 0.0 0.00 0.00 0.00 82 1010.2
20210922225754 56 180 0.0 0.0 0.00 0.00 0.00 82 1010.3
20210922225252 57 181 0.0 0.0 0.00 0.00 0.00 82 1010.3
20210922224752 57 181 0.0 0.0 0.00 0.00 0.00 81 1010.5
20210922224247 57 181 0.0 0.0 0.00 0.00 0.00 80 1010.5
20210922223747 57 181 0.0 0.0 0.00 0.00 0.00 79 1010.4
20210922223246 58 180 0.0 0.0 0.00 0.00 0.00 78 1010.2
20210922222744 58 180 0.0 0.0 0.00 0.00 0.00 77 1010.0
20210922222241 59 181 0.0 0.0 0.00 0.00 0.00 77 1010.1
20210922221727 59 180 0.0 0.0 0.00 0.00 0.00 76 1010.2
20210922221226 59 180 0.0 0.0 0.00 0.00 0.00 76 1010.1
20210922220725 59 180 0.0 0.0 0.00 0.00 0.00 75 1010.3
20210922220222 59 180 0.0 0.0 0.00 0.00 0.00 75 1010.2
20210922215719 60 178 0.0 0.0 0.00 0.00 0.00 75 1010.4
20210922215217 60 172 0.0 0.0 0.00 0.00 0.00 75 1010.2
20210922214717 60 172 0.0 0.0 0.00 0.00 0.00 75 1010.3
20210922214216 60 157 0.0 0.0 0.00 0.00 0.00 75 1010.7
20210922213714 60 157 0.0 0.0 0.00 0.00 0.00 75 1010.4
20210922213213 60 157 0.0 0.0 0.00 0.00 0.00 75 1010.4
20210922212711 61 157 0.0 1.0 0.00 0.00 0.00 74 1010.3
20210922212210 61 158 0.0 0.0 0.00 0.00 0.00 75 1010.4
20210922211707 61 151 0.0 0.0 0.00 0.00 0.00 75 1010.7
20210922211203 61 186 0.0 0.0 0.00 0.00 0.00 75 1010.8
20210922210701 61 196 0.0 0.0 0.00 0.00 0.00 75 1011.1
20210922210200 61 166 0.0 0.0 0.00 0.00 0.00 75 1011.1
20210922205658 61 184 0.0 1.0 0.00 0.00 0.00 75 1011.0
20210922205147 61 199 0.0 0.0 0.00 0.00 0.00 76 1011.4
20210922204645 61 146 1.0 2.0 0.00 0.00 0.00 76 1011.3